sensor_id;sensor_type;location;lat;lon;timestamp;P1;durP1;ratioP1;P2;durP2;ratioP2
72065;SDS011;59939;52.516;13.420;2023-04-03T00:02:23;6.97;;;2.17;;
72065;SDS011;59939;52.516;13.420;2023-04-03T00:05:28;10.27;;;2.57;;
72065;SDS011;59939;52.516;13.420;2023-04-03T00:08:31;9.83;;;2.70;;
72065;SDS011;59939;52.516;13.420;2023-04-03T00:11:38;11.47;;;2.47;;
72065;SDS011;59939;52.516;13.420;2023-04-03T00:14:42;8.57;;;2.20;;
72065;SDS011;59939;52.516;13.420;2023-04-03T00:17:46;11.13;;;2.90;;
72065;SDS011;59939;52.516;13.420;2023-04-03T00:20:50;7.10;;;2.00;;
72065;SDS011;59939;52.516;13.420;2023-04-03T00:23:53;12.37;;;2.50;;
72065;SDS011;59939;52.516;13.420;2023-04-03T00:27:01;7.47;;;3.97;;
72065;SDS011;59939;52.516;13.420;2023-04-03T00:30:05;7.70;;;2.30;;
72065;SDS011;59939;52.516;13.420;2023-04-03T00:33:12;15.20;;;3.13;;
72065;SDS011;59939;52.516;13.420;2023-04-03T00:36:15;13.67;;;2.53;;
72065;SDS011;59939;52.516;13.420;2023-04-03T00:39:20;15.13;;;3.20;;
72065;SDS011;59939;52.516;13.420;2023-04-03T00:42:23;8.90;;;2.37;;
72065;SDS011;59939;52.516;13.420;2023-04-03T00:48:35;6.77;;;2.00;;
72065;SDS011;59939;52.516;13.420;2023-04-03T00:51:55;11.17;;;2.27;;
72065;SDS011;59939;52.516;13.420;2023-04-03T00:55:00;7.57;;;2.03;;
72065;SDS011;59939;52.516;13.420;2023-04-03T00:58:06;11.00;;;2.10;;
72065;SDS011;59939;52.516;13.420;2023-04-03T01:01:20;11.80;;;2.43;;
72065;SDS011;59939;52.516;13.420;2023-04-03T01:04:40;8.20;;;2.20;;
72065;SDS011;59939;52.516;13.420;2023-04-03T01:07:46;10.70;;;2.97;;
72065;SDS011;59939;52.516;13.420;2023-04-03T01:10:51;10.00;;;2.47;;
72065;SDS011;59939;52.516;13.420;2023-04-03T01:14:03;7.93;;;2.40;;
72065;SDS011;59939;52.516;13.420;2023-04-03T01:26:48;9.77;;;2.63;;
72065;SDS011;59939;52.516;13.420;2023-04-03T01:29:52;11.67;;;2.30;;
72065;SDS011;59939;52.516;13.420;2023-04-03T01:33:04;11.17;;;2.50;;
72065;SDS011;59939;52.516;13.420;2023-04-03T01:36:09;8.67;;;2.60;;
72065;SDS011;59939;52.516;13.420;2023-04-03T01:39:20;7.33;;;2.07;;
72065;SDS011;59939;52.516;13.420;2023-04-03T01:42:26;11.93;;;2.57;;
72065;SDS011;59939;52.516;13.420;2023-04-03T01:45:32;11.77;;;2.87;;
72065;SDS011;59939;52.516;13.420;2023-04-03T01:48:37;10.73;;;2.87;;
72065;SDS011;59939;52.516;13.420;2023-04-03T01:51:40;7.77;;;2.37;;
72065;SDS011;59939;52.516;13.420;2023-04-03T01:54:44;8.37;;;2.40;;
72065;SDS011;59939;52.516;13.420;2023-04-03T01:57:51;11.53;;;2.73;;
72065;SDS011;59939;52.516;13.420;2023-04-03T02:00:55;11.40;;;2.67;;
72065;SDS011;59939;52.516;13.420;2023-04-03T02:03:59;11.40;;;2.87;;
72065;SDS011;59939;52.516;13.420;2023-04-03T02:07:05;9.03;;;2.33;;
72065;SDS011;59939;52.516;13.420;2023-04-03T02:10:12;7.37;;;2.50;;
72065;SDS011;59939;52.516;13.420;2023-04-03T02:13:17;6.93;;;2.30;;
72065;SDS011;59939;52.516;13.420;2023-04-03T02:16:23;9.80;;;2.30;;
72065;SDS011;59939;52.516;13.420;2023-04-03T02:19:28;13.43;;;2.50;;
72065;SDS011;59939;52.516;13.420;2023-04-03T02:22:33;12.03;;;2.40;;
72065;SDS011;59939;52.516;13.420;2023-04-03T02:25:37;9.43;;;2.20;;
72065;SDS011;59939;52.516;13.420;2023-04-03T02:28:41;8.93;;;2.70;;
72065;SDS011;59939;52.516;13.420;2023-04-03T02:35:19;13.47;;;2.63;;
72065;SDS011;59939;52.516;13.420;2023-04-03T02:38:24;12.70;;;2.90;;
72065;SDS011;59939;52.516;13.420;2023-04-03T02:41:30;11.10;;;2.27;;
72065;SDS011;59939;52.516;13.420;2023-04-03T02:44:53;5.67;;;2.30;;
72065;SDS011;59939;52.516;13.420;2023-04-03T02:48:00;8.73;;;2.40;;
72065;SDS011;59939;52.516;13.420;2023-04-03T02:51:19;14.20;;;2.50;;
72065;SDS011;59939;52.516;13.420;2023-04-03T02:54:25;7.23;;;2.13;;
72065;SDS011;59939;52.516;13.420;2023-04-03T02:57:35;13.87;;;2.87;;
72065;SDS011;59939;52.516;13.420;2023-04-03T03:00:48;11.83;;;2.60;;
72065;SDS011;59939;52.516;13.420;2023-04-03T03:03:54;12.33;;;2.73;;
72065;SDS011;59939;52.516;13.420;2023-04-03T03:06:58;7.70;;;2.33;;
72065;SDS011;59939;52.516;13.420;2023-04-03T03:10:02;12.73;;;3.00;;
72065;SDS011;59939;52.516;13.420;2023-04-03T03:13:06;8.43;;;2.30;;
72065;SDS011;59939;52.516;13.420;2023-04-03T03:16:10;15.93;;;2.70;;
72065;SDS011;59939;52.516;13.420;2023-04-03T03:19:14;6.73;;;2.13;;
72065;SDS011;59939;52.516;13.420;2023-04-03T03:22:19;9.67;;;2.43;;
72065;SDS011;59939;52.516;13.420;2023-04-03T03:25:27;9.50;;;2.40;;
72065;SDS011;59939;52.516;13.420;2023-04-03T03:28:39;9.80;;;2.60;;
72065;SDS011;59939;52.516;13.420;2023-04-03T03:31:45;6.27;;;2.10;;
72065;SDS011;59939;52.516;13.420;2023-04-03T03:34:51;8.37;;;2.20;;
72065;SDS011;59939;52.516;13.420;2023-04-03T03:37:55;7.93;;;2.20;;
72065;SDS011;59939;52.516;13.420;2023-04-03T03:40:59;9.93;;;2.50;;
72065;SDS011;59939;52.516;13.420;2023-04-03T03:44:07;7.37;;;2.33;;
72065;SDS011;59939;52.516;13.420;2023-04-03T03:47:14;6.37;;;2.10;;
72065;SDS011;59939;52.516;13.420;2023-04-03T03:50:19;11.63;;;2.73;;
72065;SDS011;59939;52.516;13.420;2023-04-03T03:53:23;11.73;;;2.60;;
72065;SDS011;59939;52.516;13.420;2023-04-03T03:56:45;13.83;;;2.60;;
72065;SDS011;59939;52.516;13.420;2023-04-03T03:59:49;11.93;;;2.80;;
72065;SDS011;59939;52.516;13.420;2023-04-03T04:02:55;14.40;;;3.60;;
72065;SDS011;59939;52.516;13.420;2023-04-03T04:06:02;8.90;;;2.83;;
72065;SDS011;59939;52.516;13.420;2023-04-03T04:09:06;9.37;;;2.50;;
72065;SDS011;59939;52.516;13.420;2023-04-03T04:12:11;10.43;;;3.10;;
72065;SDS011;59939;52.516;13.420;2023-04-03T04:15:17;10.27;;;3.17;;
72065;SDS011;59939;52.516;13.420;2023-04-03T04:18:22;5.80;;;2.23;;
72065;SDS011;59939;52.516;13.420;2023-04-03T04:21:34;10.00;;;3.47;;
72065;SDS011;59939;52.516;13.420;2023-04-03T04:24:53;8.80;;;2.37;;
72065;SDS011;59939;52.516;13.420;2023-04-03T04:28:00;7.93;;;2.43;;
72065;SDS011;59939;52.516;13.420;2023-04-03T04:31:05;8.27;;;2.33;;
72065;SDS011;59939;52.516;13.420;2023-04-03T04:34:12;7.67;;;2.73;;
72065;SDS011;59939;52.516;13.420;2023-04-03T04:37:34;8.57;;;3.13;;
72065;SDS011;59939;52.516;13.420;2023-04-03T04:40:39;6.53;;;2.50;;
72065;SDS011;59939;52.516;13.420;2023-04-03T04:43:47;10.33;;;2.63;;
72065;SDS011;59939;52.516;13.420;2023-04-03T04:46:51;9.03;;;2.00;;
72065;SDS011;59939;52.516;13.420;2023-04-03T04:49:57;12.53;;;2.83;;
72065;SDS011;59939;52.516;13.420;2023-04-03T04:53:02;7.27;;;2.30;;
72065;SDS011;59939;52.516;13.420;2023-04-03T04:56:06;8.67;;;2.43;;
72065;SDS011;59939;52.516;13.420;2023-04-03T04:59:12;7.17;;;2.10;;
72065;SDS011;59939;52.516;13.420;2023-04-03T05:02:16;11.73;;;2.30;;
72065;SDS011;59939;52.516;13.420;2023-04-03T05:05:24;9.73;;;2.10;;
72065;SDS011;59939;52.516;13.420;2023-04-03T05:08:35;9.27;;;2.57;;
72065;SDS011;59939;52.516;13.420;2023-04-03T05:11:43;10.80;;;2.30;;
72065;SDS011;59939;52.516;13.420;2023-04-03T05:14:51;9.90;;;2.40;;
72065;SDS011;59939;52.516;13.420;2023-04-03T05:17:56;9.97;;;2.47;;
72065;SDS011;59939;52.516;13.420;2023-04-03T05:21:00;8.03;;;2.27;;
72065;SDS011;59939;52.516;13.420;2023-04-03T05:24:05;12.87;;;3.23;;
72065;SDS011;59939;52.516;13.420;2023-04-03T05:27:20;7.80;;;2.50;;
72065;SDS011;59939;52.516;13.420;2023-04-03T05:30:28;7.23;;;2.43;;
72065;SDS011;59939;52.516;13.420;2023-04-03T05:33:32;14.70;;;2.67;;
72065;SDS011;59939;52.516;13.420;2023-04-03T05:36:48;8.73;;;2.43;;
72065;SDS011;59939;52.516;13.420;2023-04-03T05:39:52;7.13;;;2.10;;
72065;SDS011;59939;52.516;13.420;2023-04-03T05:42:56;8.57;;;2.00;;
72065;SDS011;59939;52.516;13.420;2023-04-03T05:46:02;6.23;;;2.47;;
72065;SDS011;59939;52.516;13.420;2023-04-03T05:49:07;13.27;;;2.50;;
72065;SDS011;59939;52.516;13.420;2023-04-03T05:52:21;11.50;;;2.57;;
72065;SDS011;59939;52.516;13.420;2023-04-03T05:55:34;8.73;;;2.07;;
72065;SDS011;59939;52.516;13.420;2023-04-03T05:58:39;8.20;;;2.33;;
72065;SDS011;59939;52.516;13.420;2023-04-03T06:01:43;10.83;;;3.00;;
72065;SDS011;59939;52.516;13.420;2023-04-03T06:04:47;12.50;;;2.47;;
72065;SDS011;59939;52.516;13.420;2023-04-03T06:07:52;10.10;;;2.77;;
72065;SDS011;59939;52.516;13.420;2023-04-03T06:11:11;14.07;;;2.90;;
72065;SDS011;59939;52.516;13.420;2023-04-03T06:14:23;15.17;;;3.13;;
72065;SDS011;59939;52.516;13.420;2023-04-03T06:17:26;12.83;;;2.70;;
72065;SDS011;59939;52.516;13.420;2023-04-03T06:20:32;10.03;;;3.87;;
72065;SDS011;59939;52.516;13.420;2023-04-03T06:23:38;10.00;;;2.47;;
72065;SDS011;59939;52.516;13.420;2023-04-03T06:26:42;9.43;;;2.63;;
72065;SDS011;59939;52.516;13.420;2023-04-03T06:29:46;8.23;;;2.40;;
72065;SDS011;59939;52.516;13.420;2023-04-03T06:32:50;12.20;;;2.53;;
72065;SDS011;59939;52.516;13.420;2023-04-03T06:35:58;9.73;;;2.27;;
72065;SDS011;59939;52.516;13.420;2023-04-03T06:39:06;14.47;;;3.33;;
72065;SDS011;59939;52.516;13.420;2023-04-03T06:42:10;9.20;;;2.47;;
72065;SDS011;59939;52.516;13.420;2023-04-03T06:45:34;14.67;;;2.73;;
72065;SDS011;59939;52.516;13.420;2023-04-03T06:48:40;6.93;;;2.10;;
72065;SDS011;59939;52.516;13.420;2023-04-03T06:51:47;13.37;;;2.37;;
72065;SDS011;59939;52.516;13.420;2023-04-03T06:54:51;8.47;;;2.07;;
72065;SDS011;59939;52.516;13.420;2023-04-03T06:58:01;10.83;;;2.43;;
72065;SDS011;59939;52.516;13.420;2023-04-03T07:01:05;6.83;;;2.00;;
72065;SDS011;59939;52.516;13.420;2023-04-03T07:04:08;9.27;;;2.20;;
72065;SDS011;59939;52.516;13.420;2023-04-03T07:07:15;8.33;;;2.10;;
72065;SDS011;59939;52.516;13.420;2023-04-03T07:10:18;16.50;;;2.87;;
72065;SDS011;59939;52.516;13.420;2023-04-03T07:13:23;7.53;;;2.17;;
72065;SDS011;59939;52.516;13.420;2023-04-03T07:16:31;4.57;;;1.60;;
72065;SDS011;59939;52.516;13.420;2023-04-03T07:23:17;7.03;;;1.60;;
72065;SDS011;59939;52.516;13.420;2023-04-03T07:26:21;8.87;;;1.83;;
72065;SDS011;59939;52.516;13.420;2023-04-03T07:29:25;9.77;;;2.20;;
72065;SDS011;59939;52.516;13.420;2023-04-03T07:32:29;9.23;;;1.77;;
72065;SDS011;59939;52.516;13.420;2023-04-03T07:35:35;8.63;;;2.00;;
72065;SDS011;59939;52.516;13.420;2023-04-03T07:38:40;8.17;;;1.83;;
72065;SDS011;59939;52.516;13.420;2023-04-03T07:41:44;9.13;;;2.00;;
72065;SDS011;59939;52.516;13.420;2023-04-03T07:44:48;9.83;;;1.87;;
72065;SDS011;59939;52.516;13.420;2023-04-03T07:47:52;8.17;;;1.80;;
72065;SDS011;59939;52.516;13.420;2023-04-03T07:51:03;7.37;;;2.10;;
72065;SDS011;59939;52.516;13.420;2023-04-03T07:54:08;6.27;;;2.03;;
72065;SDS011;59939;52.516;13.420;2023-04-03T07:57:28;6.93;;;1.93;;
72065;SDS011;59939;52.516;13.420;2023-04-03T08:00:33;8.13;;;2.20;;
72065;SDS011;59939;52.516;13.420;2023-04-03T08:03:43;5.97;;;1.83;;
72065;SDS011;59939;52.516;13.420;2023-04-03T08:06:47;7.10;;;2.03;;
72065;SDS011;59939;52.516;13.420;2023-04-03T08:09:51;6.00;;;1.90;;
72065;SDS011;59939;52.516;13.420;2023-04-03T08:12:56;7.03;;;1.93;;
72065;SDS011;59939;52.516;13.420;2023-04-03T08:16:06;10.93;;;2.20;;
72065;SDS011;59939;52.516;13.420;2023-04-03T08:19:12;10.07;;;2.17;;
72065;SDS011;59939;52.516;13.420;2023-04-03T08:22:27;6.37;;;1.70;;
72065;SDS011;59939;52.516;13.420;2023-04-03T08:25:31;8.20;;;1.73;;
72065;SDS011;59939;52.516;13.420;2023-04-03T08:28:35;9.53;;;2.00;;
72065;SDS011;59939;52.516;13.420;2023-04-03T08:31:39;8.03;;;1.90;;
72065;SDS011;59939;52.516;13.420;2023-04-03T08:34:42;7.10;;;2.20;;
72065;SDS011;59939;52.516;13.420;2023-04-03T08:37:48;7.20;;;1.80;;
72065;SDS011;59939;52.516;13.420;2023-04-03T08:41:11;8.93;;;2.00;;
72065;SDS011;59939;52.516;13.420;2023-04-03T08:44:23;9.43;;;1.90;;
72065;SDS011;59939;52.516;13.420;2023-04-03T08:47:37;6.60;;;2.17;;
72065;SDS011;59939;52.516;13.420;2023-04-03T08:50:58;5.60;;;2.20;;
72065;SDS011;59939;52.516;13.420;2023-04-03T08:54:05;10.47;;;1.97;;
72065;SDS011;59939;52.516;13.420;2023-04-03T09:00:50;6.27;;;1.90;;
72065;SDS011;59939;52.516;13.420;2023-04-03T09:04:01;6.17;;;1.80;;
72065;SDS011;59939;52.516;13.420;2023-04-03T09:07:12;5.70;;;1.80;;
72065;SDS011;59939;52.516;13.420;2023-04-03T09:10:19;4.93;;;2.00;;
72065;SDS011;59939;52.516;13.420;2023-04-03T09:13:35;8.87;;;1.90;;
72065;SDS011;59939;52.516;13.420;2023-04-03T09:16:46;7.57;;;1.70;;
72065;SDS011;59939;52.516;13.420;2023-04-03T09:22:56;3.57;;;1.43;;
72065;SDS011;59939;52.516;13.420;2023-04-03T09:26:06;5.83;;;1.90;;
72065;SDS011;59939;52.516;13.420;2023-04-03T09:29:14;7.77;;;1.90;;
72065;SDS011;59939;52.516;13.420;2023-04-03T09:32:24;4.80;;;1.63;;
72065;SDS011;59939;52.516;13.420;2023-04-03T09:35:30;7.07;;;1.60;;
72065;SDS011;59939;52.516;13.420;2023-04-03T09:38:39;6.07;;;1.70;;
72065;SDS011;59939;52.516;13.420;2023-04-03T09:41:54;6.13;;;1.80;;
72065;SDS011;59939;52.516;13.420;2023-04-03T09:45:04;6.27;;;1.90;;
72065;SDS011;59939;52.516;13.420;2023-04-03T09:48:14;7.57;;;1.83;;
72065;SDS011;59939;52.516;13.420;2023-04-03T09:51:27;5.73;;;1.50;;
72065;SDS011;59939;52.516;13.420;2023-04-03T09:54:36;4.87;;;1.73;;
72065;SDS011;59939;52.516;13.420;2023-04-03T09:57:45;6.33;;;1.57;;
72065;SDS011;59939;52.516;13.420;2023-04-03T10:00:53;4.73;;;1.53;;
72065;SDS011;59939;52.516;13.420;2023-04-03T10:10:30;6.77;;;2.10;;
72065;SDS011;59939;52.516;13.420;2023-04-03T10:13:35;9.70;;;1.80;;
72065;SDS011;59939;52.516;13.420;2023-04-03T10:16:47;6.40;;;1.83;;
72065;SDS011;59939;52.516;13.420;2023-04-03T10:23:02;7.20;;;2.20;;
72065;SDS011;59939;52.516;13.420;2023-04-03T10:26:16;6.47;;;1.67;;
72065;SDS011;59939;52.516;13.420;2023-04-03T10:33:08;6.27;;;1.60;;
72065;SDS011;59939;52.516;13.420;2023-04-03T10:39:41;3.90;;;1.50;;
72065;SDS011;59939;52.516;13.420;2023-04-03T10:42:53;3.97;;;1.40;;
72065;SDS011;59939;52.516;13.420;2023-04-03T10:46:03;5.07;;;1.50;;
72065;SDS011;59939;52.516;13.420;2023-04-03T10:52:50;3.47;;;1.50;;
72065;SDS011;59939;52.516;13.420;2023-04-03T10:55:58;3.80;;;1.50;;
72065;SDS011;59939;52.516;13.420;2023-04-03T10:59:23;7.30;;;2.00;;
72065;SDS011;59939;52.516;13.420;2023-04-03T11:02:30;5.70;;;1.60;;
72065;SDS011;59939;52.516;13.420;2023-04-03T11:05:44;3.03;;;1.47;;
72065;SDS011;59939;52.516;13.420;2023-04-03T11:09:11;5.47;;;1.67;;
72065;SDS011;59939;52.516;13.420;2023-04-03T11:12:21;5.10;;;1.37;;
72065;SDS011;59939;52.516;13.420;2023-04-03T11:15:26;6.50;;;1.90;;
72065;SDS011;59939;52.516;13.420;2023-04-03T11:18:42;7.13;;;2.10;;
72065;SDS011;59939;52.516;13.420;2023-04-03T11:22:02;5.33;;;1.87;;
72065;SDS011;59939;52.516;13.420;2023-04-03T11:25:20;5.93;;;1.90;;
72065;SDS011;59939;52.516;13.420;2023-04-03T11:28:26;4.87;;;1.60;;
72065;SDS011;59939;52.516;13.420;2023-04-03T11:31:36;5.03;;;1.57;;
72065;SDS011;59939;52.516;13.420;2023-04-03T11:34:42;4.87;;;1.60;;
72065;SDS011;59939;52.516;13.420;2023-04-03T11:38:02;5.53;;;1.67;;
72065;SDS011;59939;52.516;13.420;2023-04-03T11:41:09;6.70;;;1.73;;
72065;SDS011;59939;52.516;13.420;2023-04-03T11:44:34;5.87;;;1.60;;
72065;SDS011;59939;52.516;13.420;2023-04-03T11:47:44;6.07;;;1.73;;
72065;SDS011;59939;52.516;13.420;2023-04-03T11:50:49;8.40;;;1.87;;
72065;SDS011;59939;52.516;13.420;2023-04-03T11:54:04;8.30;;;1.70;;
72065;SDS011;59939;52.516;13.420;2023-04-03T11:57:22;8.17;;;2.17;;
72065;SDS011;59939;52.516;13.420;2023-04-03T12:00:54;5.80;;;1.90;;
72065;SDS011;59939;52.516;13.420;2023-04-03T12:04:05;4.83;;;1.33;;
72065;SDS011;59939;52.516;13.420;2023-04-03T12:07:17;10.27;;;2.00;;
72065;SDS011;59939;52.516;13.420;2023-04-03T12:10:23;4.93;;;1.80;;
72065;SDS011;59939;52.516;13.420;2023-04-03T12:13:35;6.17;;;1.70;;
72065;SDS011;59939;52.516;13.420;2023-04-03T12:19:44;4.43;;;1.63;;
72065;SDS011;59939;52.516;13.420;2023-04-03T12:26:27;5.97;;;1.80;;
72065;SDS011;59939;52.516;13.420;2023-04-03T12:32:49;11.87;;;1.90;;
72065;SDS011;59939;52.516;13.420;2023-04-03T12:39:16;6.97;;;1.90;;
72065;SDS011;59939;52.516;13.420;2023-04-03T12:42:33;6.83;;;1.90;;
72065;SDS011;59939;52.516;13.420;2023-04-03T12:49:04;3.87;;;1.47;;
72065;SDS011;59939;52.516;13.420;2023-04-03T12:52:24;5.93;;;1.60;;
72065;SDS011;59939;52.516;13.420;2023-04-03T12:55:44;3.63;;;1.40;;
72065;SDS011;59939;52.516;13.420;2023-04-03T12:58:51;3.27;;;1.63;;
72065;SDS011;59939;52.516;13.420;2023-04-03T13:01:56;5.33;;;1.63;;
72065;SDS011;59939;52.516;13.420;2023-04-03T13:05:07;5.83;;;1.77;;
72065;SDS011;59939;52.516;13.420;2023-04-03T13:08:12;4.27;;;1.50;;
72065;SDS011;59939;52.516;13.420;2023-04-03T13:11:25;2.40;;;1.50;;
72065;SDS011;59939;52.516;13.420;2023-04-03T13:14:33;5.53;;;1.70;;
72065;SDS011;59939;52.516;13.420;2023-04-03T13:17:38;3.60;;;1.67;;
72065;SDS011;59939;52.516;13.420;2023-04-03T13:20:43;4.97;;;1.63;;
72065;SDS011;59939;52.516;13.420;2023-04-03T13:23:50;3.80;;;1.53;;
72065;SDS011;59939;52.516;13.420;2023-04-03T13:26:57;8.40;;;2.00;;
72065;SDS011;59939;52.516;13.420;2023-04-03T13:30:24;5.03;;;1.60;;
72065;SDS011;59939;52.516;13.420;2023-04-03T13:33:32;6.60;;;1.87;;
72065;SDS011;59939;52.516;13.420;2023-04-03T13:36:37;4.13;;;1.40;;
72065;SDS011;59939;52.516;13.420;2023-04-03T13:40:08;7.17;;;1.63;;
72065;SDS011;59939;52.516;13.420;2023-04-03T13:43:18;3.83;;;1.40;;
72065;SDS011;59939;52.516;13.420;2023-04-03T13:46:24;4.63;;;1.67;;
72065;SDS011;59939;52.516;13.420;2023-04-03T13:49:31;4.73;;;1.40;;
72065;SDS011;59939;52.516;13.420;2023-04-03T13:52:49;6.00;;;1.50;;
72065;SDS011;59939;52.516;13.420;2023-04-03T13:56:05;6.27;;;1.70;;
72065;SDS011;59939;52.516;13.420;2023-04-03T14:02:20;3.17;;;1.40;;
72065;SDS011;59939;52.516;13.420;2023-04-03T14:05:45;3.53;;;1.43;;
72065;SDS011;59939;52.516;13.420;2023-04-03T14:08:50;10.77;;;1.97;;
72065;SDS011;59939;52.516;13.420;2023-04-03T14:11:55;3.03;;;1.50;;
72065;SDS011;59939;52.516;13.420;2023-04-03T14:15:04;3.30;;;1.40;;
72065;SDS011;59939;52.516;13.420;2023-04-03T14:18:16;4.40;;;1.40;;
72065;SDS011;59939;52.516;13.420;2023-04-03T14:21:28;5.47;;;1.73;;
72065;SDS011;59939;52.516;13.420;2023-04-03T14:24:34;4.23;;;1.70;;
72065;SDS011;59939;52.516;13.420;2023-04-03T14:27:39;5.97;;;1.63;;
72065;SDS011;59939;52.516;13.420;2023-04-03T14:30:44;7.53;;;1.83;;
72065;SDS011;59939;52.516;13.420;2023-04-03T14:33:49;6.57;;;2.00;;
72065;SDS011;59939;52.516;13.420;2023-04-03T14:36:53;7.67;;;2.10;;
72065;SDS011;59939;52.516;13.420;2023-04-03T14:39:58;7.47;;;2.10;;
72065;SDS011;59939;52.516;13.420;2023-04-03T14:43:02;4.57;;;1.70;;
72065;SDS011;59939;52.516;13.420;2023-04-03T14:46:10;4.43;;;1.43;;
72065;SDS011;59939;52.516;13.420;2023-04-03T14:49:18;5.60;;;1.97;;
72065;SDS011;59939;52.516;13.420;2023-04-03T14:52:29;5.40;;;1.83;;
72065;SDS011;59939;52.516;13.420;2023-04-03T14:55:33;5.40;;;2.10;;
72065;SDS011;59939;52.516;13.420;2023-04-03T14:58:38;5.67;;;1.63;;
72065;SDS011;59939;52.516;13.420;2023-04-03T15:01:42;8.37;;;1.97;;
72065;SDS011;59939;52.516;13.420;2023-04-03T15:04:46;5.33;;;1.80;;
72065;SDS011;59939;52.516;13.420;2023-04-03T15:07:52;9.33;;;2.10;;
72065;SDS011;59939;52.516;13.420;2023-04-03T15:14:30;7.80;;;1.53;;
72065;SDS011;59939;52.516;13.420;2023-04-03T15:17:38;7.00;;;1.67;;
72065;SDS011;59939;52.516;13.420;2023-04-03T15:20:45;6.10;;;1.87;;
72065;SDS011;59939;52.516;13.420;2023-04-03T15:23:49;4.90;;;1.33;;
72065;SDS011;59939;52.516;13.420;2023-04-03T15:26:53;6.77;;;1.70;;
72065;SDS011;59939;52.516;13.420;2023-04-03T15:29:57;5.77;;;1.70;;
72065;SDS011;59939;52.516;13.420;2023-04-03T15:33:02;6.30;;;1.83;;
72065;SDS011;59939;52.516;13.420;2023-04-03T15:36:08;4.27;;;1.57;;
72065;SDS011;59939;52.516;13.420;2023-04-03T15:39:20;6.47;;;1.73;;
72065;SDS011;59939;52.516;13.420;2023-04-03T15:42:24;6.60;;;1.70;;
72065;SDS011;59939;52.516;13.420;2023-04-03T15:45:30;5.80;;;1.80;;
72065;SDS011;59939;52.516;13.420;2023-04-03T15:48:35;6.27;;;1.80;;
72065;SDS011;59939;52.516;13.420;2023-04-03T15:51:39;8.10;;;1.80;;
72065;SDS011;59939;52.516;13.420;2023-04-03T15:54:43;5.03;;;1.90;;
72065;SDS011;59939;52.516;13.420;2023-04-03T15:57:46;3.67;;;1.60;;
72065;SDS011;59939;52.516;13.420;2023-04-03T16:00:58;7.40;;;1.70;;
72065;SDS011;59939;52.516;13.420;2023-04-03T16:04:05;6.47;;;1.87;;
72065;SDS011;59939;52.516;13.420;2023-04-03T16:07:10;6.50;;;1.50;;
72065;SDS011;59939;52.516;13.420;2023-04-03T16:10:14;4.23;;;1.73;;
72065;SDS011;59939;52.516;13.420;2023-04-03T16:13:18;6.60;;;1.70;;
72065;SDS011;59939;52.516;13.420;2023-04-03T16:16:23;3.53;;;1.63;;
72065;SDS011;59939;52.516;13.420;2023-04-03T16:19:28;4.63;;;1.70;;
72065;SDS011;59939;52.516;13.420;2023-04-03T16:22:33;4.33;;;1.50;;
72065;SDS011;59939;52.516;13.420;2023-04-03T16:25:37;6.43;;;1.90;;
72065;SDS011;59939;52.516;13.420;2023-04-03T16:28:41;6.10;;;1.80;;
72065;SDS011;59939;52.516;13.420;2023-04-03T16:31:45;11.00;;;2.37;;
72065;SDS011;59939;52.516;13.420;2023-04-03T16:34:49;9.03;;;1.97;;
72065;SDS011;59939;52.516;13.420;2023-04-03T16:37:53;3.90;;;1.73;;
72065;SDS011;59939;52.516;13.420;2023-04-03T16:40:56;5.87;;;1.90;;
72065;SDS011;59939;52.516;13.420;2023-04-03T16:44:03;9.13;;;1.80;;
72065;SDS011;59939;52.516;13.420;2023-04-03T16:47:07;5.20;;;1.63;;
72065;SDS011;59939;52.516;13.420;2023-04-03T16:50:11;5.97;;;1.80;;
72065;SDS011;59939;52.516;13.420;2023-04-03T16:53:16;11.80;;;2.33;;
72065;SDS011;59939;52.516;13.420;2023-04-03T16:56:19;6.63;;;1.97;;
72065;SDS011;59939;52.516;13.420;2023-04-03T16:59:26;7.97;;;2.07;;
72065;SDS011;59939;52.516;13.420;2023-04-03T17:02:29;6.23;;;1.60;;
72065;SDS011;59939;52.516;13.420;2023-04-03T17:05:36;5.20;;;1.93;;
72065;SDS011;59939;52.516;13.420;2023-04-03T17:08:45;6.77;;;2.00;;
72065;SDS011;59939;52.516;13.420;2023-04-03T17:12:02;2.87;;;1.37;;
72065;SDS011;59939;52.516;13.420;2023-04-03T17:15:06;3.47;;;1.53;;
72065;SDS011;59939;52.516;13.420;2023-04-03T17:18:10;7.30;;;2.00;;
72065;SDS011;59939;52.516;13.420;2023-04-03T17:21:14;8.07;;;1.93;;
72065;SDS011;59939;52.516;13.420;2023-04-03T17:24:21;7.00;;;1.80;;
72065;SDS011;59939;52.516;13.420;2023-04-03T17:27:25;4.60;;;1.97;;
72065;SDS011;59939;52.516;13.420;2023-04-03T17:30:32;5.03;;;1.60;;
72065;SDS011;59939;52.516;13.420;2023-04-03T17:33:35;7.57;;;2.13;;
72065;SDS011;59939;52.516;13.420;2023-04-03T17:36:40;6.80;;;1.80;;
72065;SDS011;59939;52.516;13.420;2023-04-03T17:39:44;6.80;;;1.80;;
72065;SDS011;59939;52.516;13.420;2023-04-03T17:46:19;6.53;;;1.80;;
72065;SDS011;59939;52.516;13.420;2023-04-03T17:49:23;6.57;;;2.30;;
72065;SDS011;59939;52.516;13.420;2023-04-03T17:52:28;6.03;;;1.80;;
72065;SDS011;59939;52.516;13.420;2023-04-03T17:55:31;7.60;;;2.00;;
72065;SDS011;59939;52.516;13.420;2023-04-03T17:58:35;8.23;;;2.03;;
72065;SDS011;59939;52.516;13.420;2023-04-03T18:01:39;6.80;;;1.83;;
72065;SDS011;59939;52.516;13.420;2023-04-03T18:04:42;7.77;;;2.03;;
72065;SDS011;59939;52.516;13.420;2023-04-03T18:07:46;6.87;;;1.83;;
72065;SDS011;59939;52.516;13.420;2023-04-03T18:10:59;8.17;;;2.10;;
72065;SDS011;59939;52.516;13.420;2023-04-03T18:14:03;4.93;;;2.00;;
72065;SDS011;59939;52.516;13.420;2023-04-03T18:17:08;7.77;;;2.00;;
72065;SDS011;59939;52.516;13.420;2023-04-03T18:20:12;7.47;;;1.70;;
72065;SDS011;59939;52.516;13.420;2023-04-03T18:23:17;5.20;;;2.00;;
72065;SDS011;59939;52.516;13.420;2023-04-03T18:26:23;5.70;;;1.80;;
72065;SDS011;59939;52.516;13.420;2023-04-03T18:29:29;5.50;;;1.93;;
72065;SDS011;59939;52.516;13.420;2023-04-03T18:32:35;4.23;;;1.83;;
72065;SDS011;59939;52.516;13.420;2023-04-03T18:35:54;4.43;;;1.77;;
72065;SDS011;59939;52.516;13.420;2023-04-03T18:38:58;5.97;;;1.77;;
72065;SDS011;59939;52.516;13.420;2023-04-03T18:42:03;8.23;;;2.37;;
72065;SDS011;59939;52.516;13.420;2023-04-03T18:45:08;4.33;;;1.80;;
72065;SDS011;59939;52.516;13.420;2023-04-03T18:48:13;7.70;;;2.00;;
72065;SDS011;59939;52.516;13.420;2023-04-03T18:51:21;7.83;;;1.80;;
72065;SDS011;59939;52.516;13.420;2023-04-03T18:54:25;4.83;;;1.53;;
72065;SDS011;59939;52.516;13.420;2023-04-03T18:57:29;9.47;;;1.80;;
72065;SDS011;59939;52.516;13.420;2023-04-03T19:00:33;9.17;;;1.93;;
72065;SDS011;59939;52.516;13.420;2023-04-03T19:07:06;6.00;;;2.10;;
72065;SDS011;59939;52.516;13.420;2023-04-03T19:10:13;3.93;;;1.80;;
72065;SDS011;59939;52.516;13.420;2023-04-03T19:13:19;8.27;;;1.97;;
72065;SDS011;59939;52.516;13.420;2023-04-03T19:16:26;7.30;;;2.00;;
72065;SDS011;59939;52.516;13.420;2023-04-03T19:19:37;10.10;;;1.90;;
72065;SDS011;59939;52.516;13.420;2023-04-03T19:22:41;7.10;;;2.23;;
72065;SDS011;59939;52.516;13.420;2023-04-03T19:25:56;6.10;;;1.90;;
72065;SDS011;59939;52.516;13.420;2023-04-03T19:29:00;7.03;;;1.90;;
72065;SDS011;59939;52.516;13.420;2023-04-03T19:32:04;5.17;;;1.97;;
72065;SDS011;59939;52.516;13.420;2023-04-03T19:35:07;7.73;;;2.47;;
72065;SDS011;59939;52.516;13.420;2023-04-03T19:38:11;7.77;;;2.10;;
72065;SDS011;59939;52.516;13.420;2023-04-03T19:41:16;8.13;;;2.30;;
72065;SDS011;59939;52.516;13.420;2023-04-03T19:44:21;4.43;;;2.13;;
72065;SDS011;59939;52.516;13.420;2023-04-03T19:47:25;8.67;;;1.97;;